Washington Dulles International Airport
KIAD : now visible

Airfield :











YOU CAN JOIN US ON...

 
LOGIN :

Register | Disclaimer

   EN    FR    IT 

 









Legend :    VFR   Marginal VFR   IFR   Intensive IFR   Very Intensive IFR
Visi :
Ceiling :
>= 8 km
>= 3000ft
5 to 8 km
1000 to 3000 ft
1500m to 5 km
500 to 1000 ft
800 to 1500m
200 to 500 ft
< 800m
< 200 ft
Symbols :   Thunderstorms  Fog  Heavy snow  Heavy precipitations  Wind > 20 kt






- Airport Elevation : 312 ft
- IATA code : IAD


KIAD - Washington Dulles International

CURRENT METAR :
  • 130515Z 02005KT 10SM BKN015 BKN030 BKN070 OVC140 23/22 A3006 RMK AO2 T02330222 $

EXPIRED METARs :
  • 130452Z 03005KT 10SM SCT018 BKN070 OVC140 23/22 A3007 RMK AO2 SLP177 T02330217 403330222 $
  • 130352Z 32007KT 10SM SCT070 BKN100 BKN150 OVC210 23/22 A3006 RMK AO2 SLP176 T02330222 $
  • 130252Z 04004KT 10SM FEW008 SCT080 BKN120 OVC240 23/22 A3006 RMK AO2 SLP174 60000 T02330222 55006 $

TAF KIAD
Valid from the 13 at 00:00 until the 14 at 06:00 UTC


122324Z 1300/1406 17015G30KT 6SM TSRA BKN025CB
FM130100 15005KT P6SM BKN050
FM130900 VRB03KT 5SM BR VCTS OVC015CB
FM131800 05005KT P6SM -SHRA VCTS OVC050CB
FM140300 06004KT P6SM BKN010
KZDC FIR / North America



MET'MAP, your aeronautical weather chart ! - Copyright ORBIFLY December 2007 - Disclaimer

ORBIFLY MET'MAP TEAM :

Programming & Development : Alexandra Zaïnal
Concept & original design : Baudouin d'Aumeries
Assistance for programming : Marc-Olivier Méhu
Technical & hardware support : Manuel Goepfert

Contact : metmap@orbifly.com




SOURCES & CREDITS :

   NOAA       Earth
Advisory